Lower Kalskag, AK (99626)

3:14 PM AKDT on July 01, 2015 (GMT -0800)
Kalskag AP, Kalskag, AK | | Change Station
CLOSE
Current Station
Airport
Location: Kalskag AP, Kalskag, AK,
Elevation: 56 ft
Nearby Weather Stations

Elev 56 ft 61.54 °N, 160.34 °W | Updated 18 minutes ago

Overcast
Overcast
54 °F
Feels Like 54 °F
N
8
Wind Variable Wind from West

Today
High -- | Low -- °F
--% Chance of Precip.
Yesterday
High -- | Low -- °F
Precip. -- in
5:05 AM 0:24 AM
Full, 100% visible
Pressure 30.17 in
Visibility 10.0 miles
Clouds Overcast 2600 ft
Dew Point 45 °F
Humidity 72%
Rainfall 0.00 in
Snow Depth Not available.
UV 2 out of 12
Pollen Not available.
Air Quality Not available.
Flu Activity Not available.
METAR PALG 012256Z AUTO 26007KT 240V300 10SM OVC026 12/07 A3016 RMK AO2 TSNO T01220072 SLP215 $

More Conditions Fewer Conditions

Pressure 30.17 in
Visibility 10.0 miles
Clouds Overcast 2600 ft
Dew Point 45 °F
Humidity 72%
Rainfall 0.00 in
Snow Depth Not available.
UV 2 out of 12
Pollen Not available.
Air Quality Not available.
Flu Activity Not available.
METAR PALG 012256Z AUTO 26007KT 240V300 10SM OVC026 12/07 A3016 RMK AO2 TSNO T01220072 SLP215 $

More Conditions Fewer Conditions

10-Day Weather Forecast

×

Almanac

Astronomy

Jul. 01, 2015 Rise Set
Actual Time
Civil Twilight
Nautical Twilight
Astronomical Twilight
Moon
Length of Visible Light
Length of Day
Tomorrow will be .
, % of the Moon is Illuminated

Today's Extremes

State Highs State Lows

Community

WunderPhotos

Upload Photos

1,834,335 photos uploaded!

WunderBlogs® & News

Nearby

Air Quality

  Air Quality AQ Index Pollutant
Not available.

Snow Depth

Station Depth Elevation

Earthquake Activity

City Distance Mag. Time & Date
Minimum magnitude displayed is 2.5.

Coastal Water Temperatures

Place Temperature

Stations

Nearby Weather Stations

Station Location Temp. Windchill Dew Point Humidity Wind Precip. Elev Updated Type